createdAt,value
2018-02-23T00:00:25.962Z,13.60
2018-02-23T00:02:54.278Z,13.43
2018-02-23T00:05:22.612Z,12.23
2018-02-23T00:07:51.541Z,12.20
2018-02-23T00:10:19.841Z,14.67
2018-02-23T00:12:48.246Z,13.13
2018-02-23T00:15:16.735Z,13.50
2018-02-23T00:17:45.108Z,15.60
2018-02-23T00:20:13.440Z,13.40
2018-02-23T00:22:42.223Z,14.97
2018-02-23T00:25:10.544Z,13.80
2018-02-23T00:27:38.830Z,13.60
2018-02-23T00:30:07.210Z,14.63
2018-02-23T00:32:35.664Z,14.70
2018-02-23T00:35:04.311Z,13.20
2018-02-23T00:37:32.634Z,15.50
2018-02-23T00:40:00.953Z,12.73
2018-02-23T00:42:29.520Z,16.43
2018-02-23T00:44:57.852Z,13.80
2018-02-23T00:47:26.152Z,15.27
2018-02-23T00:49:54.482Z,13.67
2018-02-23T00:52:22.808Z,16.73
2018-02-23T00:54:51.119Z,14.33
2018-02-23T00:57:19.615Z,16.37
2018-02-23T00:59:47.900Z,13.10
2018-02-23T01:02:16.246Z,13.20
2018-02-23T01:04:44.531Z,14.73
2018-02-23T01:07:13.014Z,16.00
2018-02-23T01:09:41.463Z,19.90
2018-02-23T01:12:09.802Z,17.53
2018-02-23T01:14:38.544Z,17.53
2018-02-23T01:17:06.847Z,18.90
2018-02-23T01:19:35.252Z,15.37
2018-02-23T01:22:03.620Z,17.27
2018-02-23T01:24:31.931Z,19.40
2018-02-23T01:27:00.272Z,25.23
2018-02-23T01:29:28.695Z,18.53
2018-02-23T01:31:57.004Z,17.60
2018-02-23T01:34:25.427Z,18.27
2018-02-23T01:36:53.747Z,18.47
2018-02-23T01:39:23.309Z,17.50
2018-02-23T01:41:51.642Z,20.23
2018-02-23T01:44:20.046Z,22.77
2018-02-23T01:46:48.387Z,21.53
2018-02-23T01:49:16.676Z,22.57
2018-02-23T01:51:45.338Z,19.80
2018-02-23T01:54:13.652Z,19.90
2018-02-23T01:56:41.988Z,19.90
2018-02-23T01:59:10.247Z,18.60
2018-02-23T02:01:38.580Z,24.03
2018-02-23T02:04:06.856Z,25.20
2018-02-23T02:06:35.209Z,20.87
2018-02-23T02:09:03.524Z,22.90
2018-02-23T02:11:31.894Z,25.03
2018-02-23T02:14:00.215Z,24.97
2018-02-23T02:16:28.623Z,23.30
2018-02-23T02:18:57.017Z,23.07
2018-02-23T02:21:25.359Z,26.10
2018-02-23T02:23:53.640Z,22.80
2018-02-23T02:26:22.012Z,27.13
2018-02-23T02:28:50.306Z,23.83
2018-02-23T02:31:18.926Z,25.20
2018-02-23T02:33:47.216Z,22.43
2018-02-23T02:36:15.606Z,21.37
2018-02-23T02:38:44.225Z,24.10
2018-02-23T02:41:12.529Z,23.30
2018-02-23T02:43:40.868Z,22.70
2018-02-23T02:46:09.230Z,22.97
2018-02-23T02:48:37.524Z,22.53
2018-02-23T02:51:05.917Z,26.70
2018-02-23T02:53:34.228Z,21.60
2018-02-23T02:56:02.680Z,24.70
2018-02-23T02:58:31.033Z,24.57
2018-02-23T03:00:59.371Z,21.30
2018-02-23T03:03:28.939Z,23.57
2018-02-23T03:05:57.465Z,21.27
2018-02-23T03:08:25.780Z,25.47
2018-02-23T03:10:54.309Z,21.03
2018-02-23T03:13:22.614Z,23.43
2018-02-23T03:15:50.952Z,24.13
2018-02-23T03:18:19.491Z,24.63
2018-02-23T03:20:47.814Z,22.97
2018-02-23T03:23:16.153Z,23.10
2018-02-23T03:25:44.479Z,25.80
2018-02-23T03:28:12.823Z,22.10
2018-02-23T03:30:41.152Z,22.77
2018-02-23T03:33:09.491Z,23.60
2018-02-23T03:35:38.287Z,22.60
2018-02-23T03:38:06.591Z,23.13
2018-02-23T03:40:34.907Z,25.47
2018-02-23T03:43:03.479Z,25.77
2018-02-23T03:45:31.884Z,28.10
2018-02-23T03:48:00.276Z,26.83
2018-02-23T03:50:28.581Z,30.53
2018-02-23T03:52:56.842Z,28.10
2018-02-23T03:55:25.163Z,32.37
2018-02-23T03:57:53.448Z,24.10
2018-02-23T04:00:21.964Z,27.47
2018-02-23T04:02:50.295Z,29.70
2018-02-23T04:05:18.705Z,29.23
2018-02-23T04:07:47.059Z,26.60
2018-02-23T04:10:15.379Z,28.67
2018-02-23T04:12:43.663Z,26.73
2018-02-23T04:15:11.996Z,30.70
2018-02-23T04:17:40.579Z,30.30
2018-02-23T04:20:08.903Z,30.67
2018-02-23T04:22:37.196Z,27.80
2018-02-23T04:25:05.531Z,28.87
2018-02-23T04:27:34.174Z,47.47
2018-02-23T04:30:02.451Z,30.40
2018-02-23T04:32:31.179Z,28.63
2018-02-23T04:34:59.480Z,28.97
2018-02-23T04:37:28.140Z,26.33
2018-02-23T04:39:56.447Z,29.27
2018-02-23T04:42:24.790Z,32.53
2018-02-23T04:44:59.917Z,28.87
2018-02-23T04:47:28.320Z,35.63
2018-02-23T04:49:56.665Z,32.23
2018-02-23T04:52:25.314Z,33.20
2018-02-23T04:54:53.624Z,32.30
2018-02-23T04:57:22.044Z,33.87
2018-02-23T04:59:50.671Z,29.30
2018-02-23T05:05:14.592Z,31.37
2018-02-23T05:07:44.247Z,32.83
2018-02-23T05:10:12.588Z,32.40
2018-02-23T05:12:42.786Z,33.43
2018-02-23T05:15:11.570Z,32.67
2018-02-23T05:17:39.872Z,33.83
2018-02-23T05:20:08.374Z,36.63
2018-02-23T05:22:36.845Z,36.83
2018-02-23T05:25:05.461Z,45.20
2018-02-23T05:27:34.239Z,40.63
2018-02-23T05:30:02.812Z,35.40
2018-02-23T05:32:31.322Z,39.47
2018-02-23T05:34:59.632Z,46.60
2018-02-23T05:37:28.096Z,43.40
2018-02-23T05:39:56.464Z,40.00
2018-02-23T05:42:28.029Z,44.87
2018-02-23T05:44:56.883Z,46.07
2018-02-23T05:47:27.596Z,45.93
2018-02-23T05:49:58.488Z,51.07
2018-02-23T05:52:27.242Z,51.20
2018-02-23T05:54:55.586Z,47.43
2018-02-23T05:57:24.327Z,52.43
2018-02-23T05:59:52.845Z,46.33
2018-02-23T06:02:21.174Z,52.30
2018-02-23T06:04:49.512Z,49.20
2018-02-23T06:07:17.823Z,47.27
2018-02-23T06:09:46.130Z,47.43
2018-02-23T06:12:14.476Z,50.93
2018-02-23T06:14:43.165Z,51.23
2018-02-23T06:17:15.647Z,50.00
2018-02-23T06:19:48.114Z,50.53
2018-02-23T06:22:16.572Z,54.23
2018-02-23T06:24:44.840Z,57.10
2018-02-23T06:27:19.537Z,56.30
2018-02-23T06:29:47.887Z,49.03
2018-02-23T06:32:16.211Z,55.10
2018-02-23T06:34:44.667Z,47.73
2018-02-23T06:37:12.986Z,54.03
2018-02-23T06:39:41.623Z,58.87
2018-02-23T06:42:10.028Z,48.10
2018-02-23T06:44:38.639Z,49.87
2018-02-23T06:47:11.289Z,52.90
2018-02-23T06:49:39.671Z,54.17
2018-02-23T06:52:08.164Z,54.30
2018-02-23T06:54:36.463Z,59.87
2018-02-23T06:57:04.809Z,49.00
2018-02-23T06:59:33.183Z,49.77
2018-02-23T07:02:01.523Z,53.33
2018-02-23T07:04:29.942Z,49.47
2018-02-23T07:06:58.368Z,49.63
2018-02-23T07:09:26.836Z,54.83
2018-02-23T07:11:55.245Z,51.77
2018-02-23T07:14:23.571Z,49.37
2018-02-23T07:16:51.889Z,50.50
2018-02-23T07:19:20.211Z,51.63
2018-02-23T07:21:48.900Z,61.83
2018-02-23T07:24:17.597Z,56.93
2018-02-23T07:26:46.230Z,48.50
2018-02-23T07:29:14.587Z,51.00
2018-02-23T07:31:42.920Z,57.40
2018-02-23T07:34:11.209Z,62.27
2018-02-23T07:36:39.590Z,49.80
2018-02-23T07:39:08.200Z,63.13
2018-02-23T07:41:36.576Z,53.80
2018-02-23T07:44:04.931Z,52.57
2018-02-23T07:46:33.532Z,52.87
2018-02-23T07:49:02.327Z,48.70
2018-02-23T07:51:31.107Z,53.00
2018-02-23T07:53:59.653Z,50.23
2018-02-23T07:56:28.791Z,50.43
2018-02-23T07:58:57.968Z,57.07
2018-02-23T08:01:26.369Z,49.37
2018-02-23T08:03:59.305Z,54.30
2018-02-23T08:06:28.111Z,47.97
2018-02-23T08:08:56.466Z,54.63
2018-02-23T08:11:26.731Z,55.30
2018-02-23T08:13:55.274Z,50.47
2018-02-23T08:16:23.774Z,54.37
2018-02-23T08:18:52.235Z,54.07
2018-02-23T08:21:20.565Z,48.97
2018-02-23T08:23:49.943Z,53.77
2018-02-23T08:26:18.314Z,52.53
2018-02-23T08:28:46.654Z,55.53
2018-02-23T08:31:15.248Z,45.20
2018-02-23T08:33:44.015Z,56.57
2018-02-23T08:36:12.399Z,50.40
2018-02-23T08:38:41.022Z,54.70
2018-02-23T08:41:16.041Z,54.93
2018-02-23T08:43:44.349Z,52.10
2018-02-23T08:46:12.654Z,53.53
2018-02-23T08:48:41.297Z,56.47
2018-02-23T08:51:09.607Z,52.57
2018-02-23T08:53:38.367Z,58.03
2018-02-23T08:56:06.739Z,61.23
2018-02-23T08:58:35.076Z,56.53
2018-02-23T09:01:03.456Z,58.20
2018-02-23T09:03:31.751Z,62.30
2018-02-23T09:06:00.173Z,62.17
2018-02-23T09:08:28.476Z,55.27
2018-02-23T09:10:56.956Z,59.50
2018-02-23T09:13:25.371Z,56.37
2018-02-23T09:15:53.685Z,58.87
2018-02-23T09:18:22.814Z,54.17
2018-02-23T09:20:51.263Z,63.33
2018-02-23T09:23:19.558Z,58.37
2018-02-23T09:25:47.964Z,50.60
2018-02-23T09:28:16.401Z,52.67
2018-02-23T09:30:44.726Z,57.67
2018-02-23T09:33:13.095Z,50.33
2018-02-23T09:35:41.455Z,50.50
2018-02-23T09:38:09.792Z,49.50
2018-02-23T09:40:38.279Z,48.83
2018-02-23T09:43:06.617Z,49.67
2018-02-23T09:45:34.927Z,43.47
2018-02-23T09:48:03.268Z,48.67
2018-02-23T09:50:31.807Z,43.20
2018-02-23T09:53:00.259Z,46.37
2018-02-23T09:55:28.600Z,45.20
2018-02-23T09:57:56.947Z,43.40
2018-02-23T10:00:27.180Z,39.10
2018-02-23T10:02:55.607Z,49.43
2018-02-23T10:05:23.959Z,39.20
2018-02-23T10:07:52.295Z,46.07
2018-02-23T10:10:20.666Z,46.00
2018-02-23T10:12:48.999Z,40.30
2018-02-23T10:15:17.480Z,44.43
2018-02-23T10:17:46.007Z,51.67
2018-02-23T10:20:14.345Z,43.07
2018-02-23T10:22:42.666Z,43.93
2018-02-23T10:25:11.145Z,44.93
2018-02-23T10:27:39.579Z,67.63
2018-02-23T10:30:07.906Z,39.00
2018-02-23T10:32:36.478Z,35.37
2018-02-23T10:35:04.804Z,40.40
2018-02-23T10:37:33.139Z,36.63
2018-02-23T10:40:01.698Z,33.67
2018-02-23T10:42:30.088Z,35.00
2018-02-23T10:44:58.492Z,25.73
2018-02-23T10:47:27.156Z,39.73
2018-02-23T10:49:55.455Z,33.20
2018-02-23T10:52:23.793Z,32.20
2018-02-23T10:54:52.092Z,26.60
2018-02-23T10:57:20.491Z,30.63
2018-02-23T10:59:49.020Z,31.97
2018-02-23T11:02:17.527Z,31.97
2018-02-23T11:04:45.853Z,29.20
2018-02-23T11:07:14.193Z,29.17
2018-02-23T11:09:42.559Z,29.37
2018-02-23T11:12:10.899Z,38.53
2018-02-23T11:14:39.279Z,39.13
2018-02-23T11:17:07.920Z,33.90
2018-02-23T11:19:36.519Z,36.63
2018-02-23T11:22:04.896Z,35.43
2018-02-23T11:24:33.211Z,33.80
2018-02-23T11:27:01.662Z,34.43
2018-02-23T11:29:30.277Z,35.63
2018-02-23T11:31:58.638Z,42.63
2018-02-23T11:34:27.828Z,38.23
2018-02-23T11:36:56.148Z,38.50
2018-02-23T11:39:25.327Z,38.37
2018-02-23T11:41:53.912Z,37.33
2018-02-23T11:44:22.377Z,34.13
2018-02-23T11:46:50.706Z,29.60
2018-02-23T11:49:19.051Z,36.93
2018-02-23T11:51:47.548Z,36.17
2018-02-23T11:54:15.894Z,37.03
2018-02-23T11:56:44.324Z,36.07
2018-02-23T11:59:12.856Z,34.30
2018-02-23T12:01:41.307Z,41.07
2018-02-23T12:04:09.602Z,34.27
2018-02-23T12:06:38.194Z,32.07
2018-02-23T12:09:06.680Z,31.27
2018-02-23T12:11:35.231Z,39.47
2018-02-23T12:14:03.536Z,34.13
2018-02-23T12:16:31.981Z,34.67
2018-02-23T12:19:00.544Z,32.30
2018-02-23T12:21:28.913Z,32.03
2018-02-23T12:23:57.229Z,35.40
2018-02-23T12:26:25.527Z,29.97
2018-02-23T12:28:53.907Z,33.83
2018-02-23T12:31:22.279Z,31.73
2018-02-23T12:33:50.743Z,30.30
2018-02-23T12:36:19.443Z,28.20
2018-02-23T12:38:47.964Z,30.90
2018-02-23T12:41:16.397Z,33.57
2018-02-23T12:43:44.792Z,26.50
2018-02-23T12:46:13.524Z,31.63
2018-02-23T12:48:41.839Z,38.57
2018-02-23T12:51:10.156Z,27.83
2018-02-23T12:53:38.500Z,28.47
2018-02-23T12:56:07.116Z,31.90
2018-02-23T12:58:35.638Z,28.10
2018-02-23T13:01:03.988Z,28.23
2018-02-23T13:03:32.605Z,25.80
2018-02-23T13:06:00.935Z,27.30
2018-02-23T13:08:30.060Z,27.43
2018-02-23T13:10:58.736Z,22.37
2018-02-23T13:13:28.176Z,25.87
2018-02-23T13:15:56.536Z,28.50
2018-02-23T13:18:24.867Z,24.70
2018-02-23T13:20:53.300Z,31.50
2018-02-23T13:23:21.671Z,25.77
2018-02-23T13:25:50.256Z,23.77
2018-02-23T13:28:22.716Z,24.50
2018-02-23T13:30:51.308Z,24.23
2018-02-23T13:33:19.736Z,30.40
2018-02-23T13:35:48.108Z,28.40
2018-02-23T13:38:17.884Z,30.60
2018-02-23T13:40:51.243Z,27.57
2018-02-23T13:43:26.404Z,27.20
2018-02-23T13:45:55.399Z,29.60
2018-02-23T13:48:23.731Z,31.07
2018-02-23T13:50:52.424Z,36.63
2018-02-23T13:53:20.876Z,37.20
2018-02-23T13:55:49.406Z,39.70
2018-02-23T13:58:17.750Z,29.40
2018-02-23T14:00:46.283Z,29.20
2018-02-23T14:03:16.013Z,33.33
2018-02-23T14:05:46.907Z,29.77
2018-02-23T14:08:16.654Z,34.80
2018-02-23T14:10:45.952Z,30.40
2018-02-23T14:13:14.846Z,32.47
2018-02-23T14:15:44.420Z,31.03
2018-02-23T14:18:12.907Z,35.10
2018-02-23T14:20:41.243Z,37.60
2018-02-23T14:23:09.619Z,31.33
2018-02-23T14:25:38.127Z,31.50
2018-02-23T14:28:06.523Z,45.10
2018-02-23T14:30:35.045Z,31.73
2018-02-23T14:33:03.474Z,34.67
2018-02-23T14:35:31.803Z,31.67
2018-02-23T14:38:00.247Z,37.47
2018-02-23T14:40:28.906Z,39.33
2018-02-23T14:42:57.342Z,34.30
2018-02-23T14:45:25.738Z,33.87
2018-02-23T14:47:54.517Z,34.00
2018-02-23T14:51:30.656Z,26.70
2018-02-23T14:53:59.051Z,31.80
2018-02-23T14:56:29.082Z,32.80
2018-02-23T14:58:57.916Z,27.53
2018-02-23T15:01:26.640Z,28.87
2018-02-23T15:03:55.365Z,25.03
2018-02-23T15:06:23.992Z,27.23
2018-02-23T15:08:52.386Z,21.33
2018-02-23T15:11:20.790Z,32.57
2018-02-23T15:13:49.180Z,27.30
2018-02-23T15:16:18.007Z,27.27
2018-02-23T15:18:46.555Z,28.60
2018-02-23T15:21:14.950Z,26.73
2018-02-23T15:23:44.840Z,26.87
2018-02-23T15:26:13.474Z,26.27
2018-02-23T15:28:47.981Z,25.50
2018-02-23T15:33:25.735Z,24.27
2018-02-23T15:35:54.171Z,25.80
2018-02-23T15:38:22.583Z,25.30
2018-02-23T15:40:51.048Z,26.47
2018-02-23T15:43:19.388Z,28.13
2018-02-23T15:45:47.895Z,22.10
2018-02-23T15:48:17.228Z,22.10
2018-02-23T15:50:47.048Z,34.97
2018-02-23T15:53:15.617Z,22.73
2018-02-23T15:55:44.015Z,30.23
2018-02-23T15:58:12.388Z,29.37
2018-02-23T16:00:41.039Z,28.67
2018-02-23T16:03:09.342Z,24.30
2018-02-23T16:05:37.748Z,23.23
2018-02-23T16:08:06.091Z,21.33
2018-02-23T16:10:34.981Z,29.23
2018-02-23T16:13:03.488Z,33.20
2018-02-23T16:15:31.855Z,29.73
2018-02-23T16:18:00.176Z,31.47
2018-02-23T16:20:28.627Z,27.80
2018-02-23T16:22:56.943Z,28.60
2018-02-23T16:25:25.340Z,26.73
2018-02-23T16:27:53.691Z,28.50
2018-02-23T16:30:22.028Z,29.80
2018-02-23T16:32:50.318Z,32.73
2018-02-23T16:35:18.651Z,29.40
2018-02-23T16:37:47.015Z,29.90
2018-02-23T16:40:15.363Z,29.87
2018-02-23T16:42:44.051Z,30.10
2018-02-23T16:45:12.371Z,32.23
2018-02-23T16:47:40.690Z,28.60
2018-02-23T16:50:09.155Z,27.23
2018-02-23T16:52:37.463Z,30.17
2018-02-23T16:55:06.077Z,27.20
2018-02-23T16:57:34.445Z,30.87
2018-02-23T17:00:02.756Z,26.43
2018-02-23T17:02:31.169Z,23.83
2018-02-23T17:04:59.455Z,27.40
2018-02-23T17:07:27.867Z,27.53
2018-02-23T17:09:56.156Z,26.00
2018-02-23T17:13:27.584Z,26.20
2018-02-23T17:15:55.977Z,23.37
2018-02-23T17:18:24.268Z,22.10
2018-02-23T17:20:52.759Z,25.83
2018-02-23T17:23:21.184Z,21.40
2018-02-23T17:25:49.528Z,20.53
2018-02-23T17:28:17.835Z,24.13
2018-02-23T17:30:46.180Z,23.03
2018-02-23T17:33:14.528Z,22.43
2018-02-23T17:35:43.018Z,20.50
2018-02-23T17:38:11.285Z,22.17
2018-02-23T17:40:39.645Z,22.97
2018-02-23T17:43:07.928Z,24.10
2018-02-23T17:45:36.317Z,23.80
2018-02-23T17:48:04.644Z,24.40
2018-02-23T17:50:33.024Z,18.73
2018-02-23T17:53:01.327Z,23.40
2018-02-23T17:55:29.741Z,17.43
2018-02-23T17:57:58.056Z,19.10
2018-02-23T18:00:26.814Z,19.97
2018-02-23T18:02:55.256Z,29.20
2018-02-23T18:05:23.592Z,24.33
2018-02-23T18:07:51.902Z,22.93
2018-02-23T18:10:20.245Z,25.00
2018-02-23T18:12:48.775Z,20.47
2018-02-23T18:15:17.080Z,23.40
2018-02-23T18:17:45.461Z,19.10
2018-02-23T18:20:14.643Z,25.20
2018-02-23T18:22:43.099Z,25.20
2018-02-23T18:25:11.479Z,18.80
2018-02-23T18:27:39.973Z,16.87
2018-02-23T18:30:08.396Z,23.40
2018-02-23T18:32:37.005Z,20.00
2018-02-23T18:35:06.651Z,19.90
2018-02-23T18:37:35.615Z,23.33
2018-02-23T18:40:03.950Z,20.80
2018-02-23T18:42:32.391Z,21.80
2018-02-23T18:45:00.713Z,23.27
2018-02-23T18:47:29.055Z,19.70
2018-02-23T18:49:57.328Z,17.77
2018-02-23T18:52:25.698Z,21.80
2018-02-23T18:54:54.383Z,19.30
2018-02-23T18:57:22.571Z,21.37
2018-02-23T19:02:25.736Z,24.43
2018-02-23T19:04:54.054Z,17.70
2018-02-23T19:07:22.423Z,24.67
2018-02-23T19:09:50.762Z,21.13
2018-02-23T19:12:19.090Z,19.47
2018-02-23T19:14:47.874Z,25.27
2018-02-23T19:17:16.462Z,20.77
2018-02-23T19:19:45.260Z,20.93
2018-02-23T19:22:13.627Z,16.93
2018-02-23T19:24:41.921Z,21.53
2018-02-23T19:27:10.283Z,19.17
2018-02-23T19:29:38.600Z,19.87
2018-02-23T19:32:06.978Z,22.63
2018-02-23T19:34:36.432Z,18.17
2018-02-23T19:37:04.935Z,16.97
2018-02-23T19:39:33.794Z,23.03
2018-02-23T19:42:02.209Z,17.80
2018-02-23T19:44:31.205Z,19.90
2018-02-23T19:46:59.974Z,17.93
2018-02-23T19:49:32.476Z,17.83
2018-02-23T19:52:02.651Z,18.07
2018-02-23T19:54:31.019Z,16.50
2018-02-23T19:57:01.176Z,20.03
2018-02-23T19:59:30.143Z,19.23
2018-02-23T20:01:58.625Z,17.90
2018-02-23T20:04:29.647Z,22.33
2018-02-23T20:06:58.749Z,17.40
2018-02-23T20:09:28.575Z,19.60
2018-02-23T20:11:57.184Z,20.33
2018-02-23T20:14:25.532Z,20.70
2018-02-23T20:16:54.047Z,22.00
2018-02-23T20:19:22.379Z,21.40
2018-02-23T20:21:50.911Z,20.73
2018-02-23T20:24:19.207Z,19.50
2018-02-23T20:26:47.589Z,20.53
2018-02-23T20:29:15.869Z,21.87
2018-02-23T20:31:44.223Z,22.20
2018-02-23T20:34:12.683Z,26.60
2018-02-23T20:36:42.319Z,22.73
2018-02-23T20:39:14.313Z,17.60
2018-02-23T20:41:44.573Z,20.67
2018-02-23T20:44:18.673Z,18.50
2018-02-23T20:46:53.068Z,19.77
2018-02-23T20:49:25.066Z,16.97
2018-02-23T20:51:55.434Z,27.33
2018-02-23T20:54:26.690Z,25.40
2018-02-23T20:56:55.899Z,22.00
2018-02-23T20:59:24.304Z,22.50
2018-02-23T21:01:52.651Z,20.10
2018-02-23T21:04:21.128Z,23.70
2018-02-23T21:06:49.496Z,22.20
2018-02-23T21:09:17.808Z,24.20
2018-02-23T21:11:46.300Z,17.73
2018-02-23T21:14:14.597Z,20.87
2018-02-23T21:16:42.944Z,21.90
2018-02-23T21:19:11.418Z,17.23
2018-02-23T21:21:39.870Z,22.50
2018-02-23T21:24:08.942Z,19.43
2018-02-23T21:26:37.267Z,20.40
2018-02-23T21:29:05.800Z,17.93
2018-02-23T21:31:34.146Z,17.40
2018-02-23T21:34:02.419Z,16.20
2018-02-23T21:36:30.922Z,16.33
2018-02-23T21:38:59.178Z,19.93
2018-02-23T21:41:27.981Z,21.73
2018-02-23T21:43:56.316Z,20.00
2018-02-23T21:46:24.758Z,20.53
2018-02-23T21:48:53.690Z,22.43
2018-02-23T21:51:25.528Z,17.93
2018-02-23T21:53:59.040Z,18.43
2018-02-23T21:56:29.738Z,16.77
2018-02-23T21:58:59.134Z,18.77
2018-02-23T22:01:27.496Z,19.37
2018-02-23T22:03:55.863Z,20.73
2018-02-23T22:06:24.366Z,19.70
2018-02-23T22:08:52.791Z,18.20
2018-02-23T22:11:21.312Z,17.00
2018-02-23T22:13:49.603Z,16.60
2018-02-23T22:16:21.974Z,21.10
2018-02-23T22:18:51.232Z,19.80
2018-02-23T22:21:20.783Z,20.57
2018-02-23T22:23:51.206Z,19.90
2018-02-23T22:26:19.733Z,19.17
2018-02-23T22:28:48.623Z,18.50
2018-02-23T22:31:18.420Z,17.67
2018-02-23T22:33:47.811Z,17.40
2018-02-23T22:36:16.822Z,22.20
2018-02-23T22:39:23.172Z,18.10
2018-02-23T22:41:52.021Z,18.90
2018-02-23T22:45:01.828Z,21.57
2018-02-23T22:47:30.748Z,17.80
2018-02-23T22:50:00.950Z,17.90
2018-02-23T22:52:29.679Z,22.67
2018-02-23T22:55:12.283Z,24.50
2018-02-23T22:58:21.189Z,19.90
2018-02-23T23:00:50.884Z,23.37
2018-02-23T23:03:20.410Z,23.10
2018-02-23T23:05:49.316Z,21.13
2018-02-23T23:08:17.991Z,20.00
2018-02-23T23:11:08.122Z,26.03
2018-02-23T23:14:49.267Z,23.77
2018-02-23T23:17:19.785Z,23.30
2018-02-23T23:19:48.913Z,25.10
2018-02-23T23:22:30.857Z,24.53
2018-02-23T23:25:17.364Z,30.07
2018-02-23T23:31:03.069Z,26.13
2018-02-23T23:34:35.254Z,26.60
2018-02-23T23:37:05.171Z,22.27
2018-02-23T23:39:33.999Z,23.00
2018-02-23T23:42:15.753Z,22.70
2018-02-23T23:44:47.574Z,19.30
2018-02-23T23:47:20.823Z,24.40
2018-02-23T23:49:52.146Z,24.77
2018-02-23T23:52:25.087Z,27.73
2018-02-23T23:54:55.406Z,21.13
2018-02-23T23:57:26.944Z,21.33
2018-02-23T23:59:57.163Z,27.97
